Hilltop, New Jersey
Current Conditions -  °F | °C
As of 12:54 AM on Tuesday 21 Oct 2014 (Local Time) from KPHL Reporting Station
Overcast Overcast  
Wind Chill: 56°   Ceiling: 18000
Heat Index: 56°   Visibility: 10mi
Dew Point: 44°   Wind: 5mph
Humidity: 64%   Direction: 260°W
Pressure: 29.96"   Gusts: NA
Location:  39.778°N, 75.0552°W
Report Text: KPHL 210454Z 26004KT 10SM FEW050 SCT095 BKN180 OVC250 13/07 A2996 RMK AO2 SLP144 T01330067 401720039
Loading
Personal Weather Stations






























Interactive Weather Map
Tropical Storm Tracking
New forecast layout! Learn more

10-Day Weather Forecast

Advertisements
Track Severe Weather on mobile